sensor_id;sensor_type;location;lat;lon;timestamp;P1;durP1;ratioP1;P2;durP2;ratioP2
12725;SDS011;6427;49.754;6.106;2022-07-30T00:01:03;4.90;;;4.20;;
12725;SDS011;6427;49.754;6.106;2022-07-30T00:03:31;6.27;;;3.73;;
12725;SDS011;6427;49.754;6.106;2022-07-30T00:05:58;4.90;;;4.07;;
12725;SDS011;6427;49.754;6.106;2022-07-30T00:08:26;4.33;;;3.93;;
12725;SDS011;6427;49.754;6.106;2022-07-30T00:10:54;4.20;;;3.80;;
12725;SDS011;6427;49.754;6.106;2022-07-30T00:13:21;6.63;;;4.27;;
12725;SDS011;6427;49.754;6.106;2022-07-30T00:15:49;6.70;;;4.43;;
12725;SDS011;6427;49.754;6.106;2022-07-30T00:18:17;5.20;;;4.47;;
12725;SDS011;6427;49.754;6.106;2022-07-30T00:20:45;11.27;;;4.40;;
12725;SDS011;6427;49.754;6.106;2022-07-30T00:23:13;7.83;;;4.83;;
12725;SDS011;6427;49.754;6.106;2022-07-30T00:25:40;6.73;;;4.47;;
12725;SDS011;6427;49.754;6.106;2022-07-30T00:28:08;6.77;;;4.57;;
12725;SDS011;6427;49.754;6.106;2022-07-30T00:30:35;4.40;;;4.00;;
12725;SDS011;6427;49.754;6.106;2022-07-30T00:33:04;6.18;;;4.95;;
12725;SDS011;6427;49.754;6.106;2022-07-30T00:35:31;6.07;;;4.37;;
12725;SDS011;6427;49.754;6.106;2022-07-30T00:38:00;6.03;;;4.57;;
12725;SDS011;6427;49.754;6.106;2022-07-30T00:40:27;5.10;;;4.60;;
12725;SDS011;6427;49.754;6.106;2022-07-30T00:42:55;6.13;;;4.47;;
12725;SDS011;6427;49.754;6.106;2022-07-30T00:45:22;4.97;;;4.47;;
12725;SDS011;6427;49.754;6.106;2022-07-30T00:50:27;5.00;;;4.10;;
12725;SDS011;6427;49.754;6.106;2022-07-30T00:52:55;4.60;;;4.20;;
12725;SDS011;6427;49.754;6.106;2022-07-30T00:55:23;5.20;;;4.70;;
12725;SDS011;6427;49.754;6.106;2022-07-30T00:57:50;7.20;;;5.20;;
12725;SDS011;6427;49.754;6.106;2022-07-30T01:00:18;5.13;;;4.50;;
12725;SDS011;6427;49.754;6.106;2022-07-30T01:02:45;6.03;;;4.47;;
12725;SDS011;6427;49.754;6.106;2022-07-30T01:05:13;5.70;;;4.80;;
12725;SDS011;6427;49.754;6.106;2022-07-30T01:07:41;5.80;;;5.20;;
12725;SDS011;6427;49.754;6.106;2022-07-30T01:10:10;5.73;;;4.67;;
12725;SDS011;6427;49.754;6.106;2022-07-30T01:12:36;5.30;;;4.80;;
12725;SDS011;6427;49.754;6.106;2022-07-30T01:15:06;5.30;;;4.50;;
12725;SDS011;6427;49.754;6.106;2022-07-30T01:17:33;4.73;;;4.23;;
12725;SDS011;6427;49.754;6.106;2022-07-30T01:22:54;9.68;;;5.57;;
12725;SDS011;6427;49.754;6.106;2022-07-30T01:25:43;8.70;;;5.27;;
12725;SDS011;6427;49.754;6.106;2022-07-30T01:28:13;8.20;;;5.07;;
12725;SDS011;6427;49.754;6.106;2022-07-30T01:30:40;7.50;;;4.83;;
12725;SDS011;6427;49.754;6.106;2022-07-30T01:33:09;7.17;;;4.80;;
12725;SDS011;6427;49.754;6.106;2022-07-30T01:35:36;9.07;;;5.03;;
12725;SDS011;6427;49.754;6.106;2022-07-30T01:38:03;6.03;;;4.63;;
12725;SDS011;6427;49.754;6.106;2022-07-30T01:40:32;5.90;;;4.40;;
12725;SDS011;6427;49.754;6.106;2022-07-30T01:43:00;6.17;;;4.60;;
12725;SDS011;6427;49.754;6.106;2022-07-30T01:45:28;5.97;;;4.77;;
12725;SDS011;6427;49.754;6.106;2022-07-30T01:47:56;5.43;;;4.40;;
12725;SDS011;6427;49.754;6.106;2022-07-30T01:50:23;5.77;;;4.30;;
12725;SDS011;6427;49.754;6.106;2022-07-30T01:52:51;5.13;;;4.20;;
12725;SDS011;6427;49.754;6.106;2022-07-30T01:55:27;4.33;;;4.03;;
12725;SDS011;6427;49.754;6.106;2022-07-30T01:57:50;5.20;;;4.10;;
12725;SDS011;6427;49.754;6.106;2022-07-30T02:00:17;5.23;;;4.60;;
12725;SDS011;6427;49.754;6.106;2022-07-30T02:02:45;6.90;;;4.63;;
12725;SDS011;6427;49.754;6.106;2022-07-30T02:05:13;8.88;;;5.35;;
12725;SDS011;6427;49.754;6.106;2022-07-30T02:07:45;6.30;;;4.95;;
12725;SDS011;6427;49.754;6.106;2022-07-30T02:10:16;5.97;;;5.12;;
12725;SDS011;6427;49.754;6.106;2022-07-30T02:12:45;6.10;;;5.00;;
12725;SDS011;6427;49.754;6.106;2022-07-30T02:15:13;5.27;;;4.83;;
12725;SDS011;6427;49.754;6.106;2022-07-30T02:20:11;5.90;;;5.30;;
12725;SDS011;6427;49.754;6.106;2022-07-30T02:22:41;6.50;;;5.30;;
12725;SDS011;6427;49.754;6.106;2022-07-30T02:25:07;7.20;;;5.00;;
12725;SDS011;6427;49.754;6.106;2022-07-30T02:27:36;5.40;;;4.90;;
12725;SDS011;6427;49.754;6.106;2022-07-30T02:30:02;5.13;;;4.63;;
12725;SDS011;6427;49.754;6.106;2022-07-30T02:32:32;6.70;;;5.35;;
12725;SDS011;6427;49.754;6.106;2022-07-30T02:34:59;5.23;;;4.73;;
12725;SDS011;6427;49.754;6.106;2022-07-30T02:37:26;6.80;;;5.07;;
12725;SDS011;6427;49.754;6.106;2022-07-30T02:39:54;9.35;;;5.90;;
12725;SDS011;6427;49.754;6.106;2022-07-30T02:42:22;6.00;;;4.83;;
12725;SDS011;6427;49.754;6.106;2022-07-30T02:44:49;5.23;;;4.73;;
12725;SDS011;6427;49.754;6.106;2022-07-30T02:47:17;7.50;;;5.03;;
12725;SDS011;6427;49.754;6.106;2022-07-30T02:49:44;7.03;;;5.07;;
12725;SDS011;6427;49.754;6.106;2022-07-30T02:52:12;5.67;;;5.17;;
12725;SDS011;6427;49.754;6.106;2022-07-30T02:54:40;7.67;;;5.17;;
12725;SDS011;6427;49.754;6.106;2022-07-30T02:57:07;6.13;;;4.90;;
12725;SDS011;6427;49.754;6.106;2022-07-30T02:59:35;6.00;;;5.03;;
12725;SDS011;6427;49.754;6.106;2022-07-30T03:02:02;6.50;;;4.97;;
12725;SDS011;6427;49.754;6.106;2022-07-30T03:04:30;6.22;;;5.05;;
12725;SDS011;6427;49.754;6.106;2022-07-30T03:06:58;5.67;;;4.87;;
12725;SDS011;6427;49.754;6.106;2022-07-30T03:09:25;6.00;;;4.40;;
12725;SDS011;6427;49.754;6.106;2022-07-30T03:11:53;5.67;;;4.50;;
12725;SDS011;6427;49.754;6.106;2022-07-30T03:14:20;5.40;;;4.90;;
12725;SDS011;6427;49.754;6.106;2022-07-30T03:16:50;4.70;;;4.20;;
12725;SDS011;6427;49.754;6.106;2022-07-30T03:19:16;5.63;;;4.53;;
12725;SDS011;6427;49.754;6.106;2022-07-30T03:21:43;7.53;;;4.77;;
12725;SDS011;6427;49.754;6.106;2022-07-30T03:24:11;5.50;;;4.90;;
12725;SDS011;6427;49.754;6.106;2022-07-30T03:26:39;8.70;;;5.20;;
12725;SDS011;6427;49.754;6.106;2022-07-30T03:29:07;5.73;;;5.00;;
12725;SDS011;6427;49.754;6.106;2022-07-30T03:31:35;7.00;;;5.00;;
12725;SDS011;6427;49.754;6.106;2022-07-30T03:34:03;7.05;;;5.57;;
12725;SDS011;6427;49.754;6.106;2022-07-30T03:36:30;5.43;;;4.93;;
12725;SDS011;6427;49.754;6.106;2022-07-30T03:38:58;5.93;;;4.93;;
12725;SDS011;6427;49.754;6.106;2022-07-30T03:41:26;5.40;;;4.90;;
12725;SDS011;6427;49.754;6.106;2022-07-30T03:43:54;6.87;;;5.00;;
12725;SDS011;6427;49.754;6.106;2022-07-30T03:46:21;5.70;;;5.10;;
12725;SDS011;6427;49.754;6.106;2022-07-30T03:48:49;6.10;;;5.20;;
12725;SDS011;6427;49.754;6.106;2022-07-30T03:51:16;7.30;;;4.80;;
12725;SDS011;6427;49.754;6.106;2022-07-30T03:53:44;5.60;;;4.60;;
12725;SDS011;6427;49.754;6.106;2022-07-30T03:56:13;6.17;;;4.87;;
12725;SDS011;6427;49.754;6.106;2022-07-30T03:58:40;5.43;;;4.90;;
12725;SDS011;6427;49.754;6.106;2022-07-30T04:01:08;7.13;;;4.40;;
12725;SDS011;6427;49.754;6.106;2022-07-30T04:03:35;5.90;;;4.93;;
12725;SDS011;6427;49.754;6.106;2022-07-30T04:06:03;5.33;;;4.73;;
12725;SDS011;6427;49.754;6.106;2022-07-30T04:08:30;5.23;;;4.73;;
12725;SDS011;6427;49.754;6.106;2022-07-30T04:10:59;5.50;;;5.00;;
12725;SDS011;6427;49.754;6.106;2022-07-30T04:13:26;6.17;;;4.73;;
12725;SDS011;6427;49.754;6.106;2022-07-30T04:16:01;6.25;;;5.65;;
12725;SDS011;6427;49.754;6.106;2022-07-30T04:18:41;6.53;;;4.70;;
12725;SDS011;6427;49.754;6.106;2022-07-30T04:21:08;6.17;;;5.03;;
12725;SDS011;6427;49.754;6.106;2022-07-30T04:23:34;6.17;;;5.00;;
12725;SDS011;6427;49.754;6.106;2022-07-30T04:26:02;7.70;;;5.17;;
12725;SDS011;6427;49.754;6.106;2022-07-30T04:28:30;6.70;;;5.67;;
12725;SDS011;6427;49.754;6.106;2022-07-30T04:30:57;7.80;;;5.30;;
12725;SDS011;6427;49.754;6.106;2022-07-30T04:33:25;6.10;;;5.27;;
12725;SDS011;6427;49.754;6.106;2022-07-30T04:35:53;6.73;;;5.80;;
12725;SDS011;6427;49.754;6.106;2022-07-30T04:38:21;5.73;;;5.13;;
12725;SDS011;6427;49.754;6.106;2022-07-30T04:40:49;7.18;;;6.05;;
12725;SDS011;6427;49.754;6.106;2022-07-30T04:43:17;6.57;;;5.97;;
12725;SDS011;6427;49.754;6.106;2022-07-30T04:45:44;8.47;;;6.07;;
12725;SDS011;6427;49.754;6.106;2022-07-30T04:48:12;6.43;;;5.83;;
12725;SDS011;6427;49.754;6.106;2022-07-30T04:50:40;7.53;;;5.43;;
12725;SDS011;6427;49.754;6.106;2022-07-30T04:53:07;8.90;;;5.43;;
12725;SDS011;6427;49.754;6.106;2022-07-30T04:55:35;6.37;;;5.33;;
12725;SDS011;6427;49.754;6.106;2022-07-30T04:58:02;9.40;;;5.47;;
12725;SDS011;6427;49.754;6.106;2022-07-30T05:00:30;7.20;;;6.07;;
12725;SDS011;6427;49.754;6.106;2022-07-30T05:02:57;7.67;;;5.57;;
12725;SDS011;6427;49.754;6.106;2022-07-30T05:05:25;6.27;;;5.67;;
12725;SDS011;6427;49.754;6.106;2022-07-30T05:07:52;6.07;;;5.57;;
12725;SDS011;6427;49.754;6.106;2022-07-30T05:10:20;7.03;;;5.90;;
12725;SDS011;6427;49.754;6.106;2022-07-30T05:12:48;7.47;;;6.43;;
12725;SDS011;6427;49.754;6.106;2022-07-30T05:15:16;6.80;;;6.03;;
12725;SDS011;6427;49.754;6.106;2022-07-30T05:17:44;10.10;;;5.77;;
12725;SDS011;6427;49.754;6.106;2022-07-30T05:20:11;6.10;;;5.50;;
12725;SDS011;6427;49.754;6.106;2022-07-30T05:22:39;6.60;;;6.00;;
12725;SDS011;6427;49.754;6.106;2022-07-30T05:25:06;7.65;;;6.90;;
12725;SDS011;6427;49.754;6.106;2022-07-30T05:27:34;7.03;;;6.30;;
12725;SDS011;6427;49.754;6.106;2022-07-30T05:30:02;7.97;;;6.90;;
12725;SDS011;6427;49.754;6.106;2022-07-30T05:32:30;8.97;;;7.40;;
12725;SDS011;6427;49.754;6.106;2022-07-30T05:34:58;9.23;;;7.78;;
12725;SDS011;6427;49.754;6.106;2022-07-30T05:37:26;8.03;;;6.97;;
12725;SDS011;6427;49.754;6.106;2022-07-30T05:39:54;8.93;;;7.20;;
12725;SDS011;6427;49.754;6.106;2022-07-30T05:42:22;9.43;;;7.20;;
12725;SDS011;6427;49.754;6.106;2022-07-30T05:44:50;9.50;;;8.45;;
12725;SDS011;6427;49.754;6.106;2022-07-30T05:47:17;11.33;;;7.53;;
12725;SDS011;6427;49.754;6.106;2022-07-30T05:49:45;10.33;;;7.57;;
12725;SDS011;6427;49.754;6.106;2022-07-30T05:52:12;10.03;;;7.00;;
12725;SDS011;6427;49.754;6.106;2022-07-30T05:54:41;9.77;;;7.67;;
12725;SDS011;6427;49.754;6.106;2022-07-30T05:57:09;8.63;;;6.53;;
12725;SDS011;6427;49.754;6.106;2022-07-30T05:59:36;12.33;;;7.10;;
12725;SDS011;6427;49.754;6.106;2022-07-30T06:02:04;9.20;;;7.47;;
12725;SDS011;6427;49.754;6.106;2022-07-30T06:04:32;9.37;;;7.50;;
12725;SDS011;6427;49.754;6.106;2022-07-30T06:07:00;7.87;;;6.73;;
12725;SDS011;6427;49.754;6.106;2022-07-30T06:09:30;7.17;;;6.57;;
12725;SDS011;6427;49.754;6.106;2022-07-30T06:11:57;7.37;;;6.47;;
12725;SDS011;6427;49.754;6.106;2022-07-30T06:14:25;7.50;;;6.57;;
12725;SDS011;6427;49.754;6.106;2022-07-30T06:16:53;7.10;;;6.40;;
12725;SDS011;6427;49.754;6.106;2022-07-30T06:19:20;6.87;;;6.17;;
12725;SDS011;6427;49.754;6.106;2022-07-30T06:21:49;9.15;;;7.35;;
12725;SDS011;6427;49.754;6.106;2022-07-30T06:24:17;9.23;;;6.60;;
12725;SDS011;6427;49.754;6.106;2022-07-30T06:26:45;7.30;;;6.60;;
12725;SDS011;6427;49.754;6.106;2022-07-30T06:29:12;7.20;;;6.50;;
12725;SDS011;6427;49.754;6.106;2022-07-30T06:31:40;8.68;;;7.87;;
12725;SDS011;6427;49.754;6.106;2022-07-30T06:34:07;8.23;;;7.43;;
12725;SDS011;6427;49.754;6.106;2022-07-30T06:36:35;9.13;;;7.97;;
12725;SDS011;6427;49.754;6.106;2022-07-30T06:39:02;8.60;;;7.73;;
12725;SDS011;6427;49.754;6.106;2022-07-30T06:41:31;12.07;;;7.30;;
12725;SDS011;6427;49.754;6.106;2022-07-30T06:43:58;10.20;;;7.23;;
12725;SDS011;6427;49.754;6.106;2022-07-30T06:46:27;8.57;;;7.27;;
12725;SDS011;6427;49.754;6.106;2022-07-30T06:48:54;9.47;;;6.80;;
12725;SDS011;6427;49.754;6.106;2022-07-30T06:51:23;8.17;;;6.87;;
12725;SDS011;6427;49.754;6.106;2022-07-30T06:53:51;7.47;;;6.77;;
12725;SDS011;6427;49.754;6.106;2022-07-30T06:56:18;11.23;;;8.05;;
12725;SDS011;6427;49.754;6.106;2022-07-30T06:58:47;9.53;;;8.13;;
12725;SDS011;6427;49.754;6.106;2022-07-30T07:01:14;11.50;;;8.30;;
12725;SDS011;6427;49.754;6.106;2022-07-30T07:03:42;11.60;;;8.45;;
12725;SDS011;6427;49.754;6.106;2022-07-30T07:06:10;9.93;;;7.47;;
12725;SDS011;6427;49.754;6.106;2022-07-30T07:08:38;10.33;;;7.90;;
12725;SDS011;6427;49.754;6.106;2022-07-30T07:11:06;9.23;;;7.87;;
12725;SDS011;6427;49.754;6.106;2022-07-30T07:13:33;10.43;;;7.40;;
12725;SDS011;6427;49.754;6.106;2022-07-30T07:16:01;8.97;;;6.93;;
12725;SDS011;6427;49.754;6.106;2022-07-30T07:18:28;10.23;;;6.93;;
12725;SDS011;6427;49.754;6.106;2022-07-30T07:20:56;11.93;;;7.03;;
12725;SDS011;6427;49.754;6.106;2022-07-30T07:23:24;9.90;;;6.80;;
12725;SDS011;6427;49.754;6.106;2022-07-30T07:25:51;10.90;;;6.77;;
12725;SDS011;6427;49.754;6.106;2022-07-30T07:28:19;8.23;;;6.77;;
12725;SDS011;6427;49.754;6.106;2022-07-30T07:30:46;11.83;;;7.07;;
12725;SDS011;6427;49.754;6.106;2022-07-30T07:33:14;10.87;;;6.57;;
12725;SDS011;6427;49.754;6.106;2022-07-30T07:35:41;10.37;;;6.17;;
12725;SDS011;6427;49.754;6.106;2022-07-30T07:38:11;8.77;;;6.47;;
12725;SDS011;6427;49.754;6.106;2022-07-30T07:40:37;7.53;;;6.23;;
12725;SDS011;6427;49.754;6.106;2022-07-30T07:43:05;12.55;;;6.82;;
12725;SDS011;6427;49.754;6.106;2022-07-30T07:45:33;9.57;;;6.00;;
12725;SDS011;6427;49.754;6.106;2022-07-30T07:48:00;7.30;;;5.80;;
12725;SDS011;6427;49.754;6.106;2022-07-30T07:50:28;7.90;;;6.67;;
12725;SDS011;6427;49.754;6.106;2022-07-30T07:52:56;9.37;;;6.20;;
12725;SDS011;6427;49.754;6.106;2022-07-30T07:55:24;11.10;;;6.10;;
12725;SDS011;6427;49.754;6.106;2022-07-30T07:57:52;11.70;;;5.87;;
12725;SDS011;6427;49.754;6.106;2022-07-30T08:00:19;9.23;;;6.40;;
12725;SDS011;6427;49.754;6.106;2022-07-30T08:02:47;11.70;;;5.87;;
12725;SDS011;6427;49.754;6.106;2022-07-30T08:05:15;11.93;;;5.47;;
12725;SDS011;6427;49.754;6.106;2022-07-30T08:07:43;9.87;;;6.00;;
12725;SDS011;6427;49.754;6.106;2022-07-30T08:10:10;9.97;;;4.90;;
12725;SDS011;6427;49.754;6.106;2022-07-30T08:12:39;10.70;;;6.15;;
12725;SDS011;6427;49.754;6.106;2022-07-30T08:15:06;8.10;;;5.80;;
12725;SDS011;6427;49.754;6.106;2022-07-30T08:17:41;8.77;;;5.47;;
12725;SDS011;6427;49.754;6.106;2022-07-30T08:20:08;8.13;;;5.93;;
12725;SDS011;6427;49.754;6.106;2022-07-30T08:22:36;9.48;;;5.75;;
12725;SDS011;6427;49.754;6.106;2022-07-30T08:25:04;11.47;;;4.80;;
12725;SDS011;6427;49.754;6.106;2022-07-30T08:27:31;6.93;;;4.60;;
12725;SDS011;6427;49.754;6.106;2022-07-30T08:30:03;10.70;;;4.90;;
12725;SDS011;6427;49.754;6.106;2022-07-30T08:32:32;6.80;;;4.43;;
12725;SDS011;6427;49.754;6.106;2022-07-30T08:35:01;8.88;;;5.07;;
12725;SDS011;6427;49.754;6.106;2022-07-30T08:37:28;6.87;;;4.33;;
12725;SDS011;6427;49.754;6.106;2022-07-30T08:39:56;7.43;;;4.57;;
12725;SDS011;6427;49.754;6.106;2022-07-30T08:42:24;7.93;;;4.50;;
12725;SDS011;6427;49.754;6.106;2022-07-30T08:44:53;8.00;;;4.80;;
12725;SDS011;6427;49.754;6.106;2022-07-30T08:47:22;9.57;;;4.63;;
12725;SDS011;6427;49.754;6.106;2022-07-30T08:49:48;9.87;;;4.60;;
12725;SDS011;6427;49.754;6.106;2022-07-30T08:52:17;5.83;;;4.10;;
12725;SDS011;6427;49.754;6.106;2022-07-30T08:54:44;4.87;;;3.60;;
12725;SDS011;6427;49.754;6.106;2022-07-30T08:57:12;8.03;;;3.03;;
12725;SDS011;6427;49.754;6.106;2022-07-30T08:59:41;3.50;;;2.60;;
12725;SDS011;6427;49.754;6.106;2022-07-30T09:02:08;4.20;;;2.50;;
12725;SDS011;6427;49.754;6.106;2022-07-30T09:04:36;4.57;;;2.30;;
12725;SDS011;6427;49.754;6.106;2022-07-30T09:07:03;2.80;;;2.17;;
12725;SDS011;6427;49.754;6.106;2022-07-30T09:09:31;6.77;;;2.47;;
12725;SDS011;6427;49.754;6.106;2022-07-30T09:11:59;5.80;;;2.80;;
12725;SDS011;6427;49.754;6.106;2022-07-30T09:14:28;6.07;;;2.40;;
12725;SDS011;6427;49.754;6.106;2022-07-30T09:16:55;3.60;;;2.33;;
12725;SDS011;6427;49.754;6.106;2022-07-30T09:19:24;4.60;;;2.20;;
12725;SDS011;6427;49.754;6.106;2022-07-30T09:21:59;5.73;;;2.33;;
12725;SDS011;6427;49.754;6.106;2022-07-30T09:24:26;4.97;;;1.93;;
12725;SDS011;6427;49.754;6.106;2022-07-30T09:26:57;9.90;;;3.00;;
12725;SDS011;6427;49.754;6.106;2022-07-30T09:29:25;5.57;;;2.23;;
12725;SDS011;6427;49.754;6.106;2022-07-30T09:31:56;7.07;;;2.10;;
12725;SDS011;6427;49.754;6.106;2022-07-30T09:34:27;4.18;;;2.30;;
12725;SDS011;6427;49.754;6.106;2022-07-30T09:36:50;3.60;;;1.80;;
12725;SDS011;6427;49.754;6.106;2022-07-30T09:39:29;5.30;;;1.90;;
12725;SDS011;6427;49.754;6.106;2022-07-30T09:41:58;2.62;;;1.87;;
12725;SDS011;6427;49.754;6.106;2022-07-30T09:44:26;5.83;;;1.63;;
12725;SDS011;6427;49.754;6.106;2022-07-30T09:46:54;2.67;;;1.67;;
12725;SDS011;6427;49.754;6.106;2022-07-30T09:49:25;1.93;;;1.60;;
12725;SDS011;6427;49.754;6.106;2022-07-30T09:51:53;3.67;;;1.80;;
12725;SDS011;6427;49.754;6.106;2022-07-30T09:54:20;5.50;;;1.92;;
12725;SDS011;6427;49.754;6.106;2022-07-30T09:56:56;3.85;;;1.70;;
12725;SDS011;6427;49.754;6.106;2022-07-30T09:59:25;2.70;;;1.70;;
12725;SDS011;6427;49.754;6.106;2022-07-30T10:01:52;8.30;;;1.77;;
12725;SDS011;6427;49.754;6.106;2022-07-30T10:04:30;3.80;;;1.58;;
12725;SDS011;6427;49.754;6.106;2022-07-30T10:06:53;6.07;;;1.53;;
12725;SDS011;6427;49.754;6.106;2022-07-30T10:09:24;3.50;;;1.42;;
12725;SDS011;6427;49.754;6.106;2022-07-30T10:11:53;2.00;;;1.40;;
12725;SDS011;6427;49.754;6.106;2022-07-30T10:14:22;2.13;;;1.20;;
12725;SDS011;6427;49.754;6.106;2022-07-30T10:16:50;0.97;;;0.87;;
12725;SDS011;6427;49.754;6.106;2022-07-30T10:19:17;2.67;;;1.00;;
12725;SDS011;6427;49.754;6.106;2022-07-30T10:21:45;1.62;;;1.10;;
12725;SDS011;6427;49.754;6.106;2022-07-30T10:24:17;1.27;;;1.07;;
12725;SDS011;6427;49.754;6.106;2022-07-30T10:26:45;2.13;;;0.93;;
12725;SDS011;6427;49.754;6.106;2022-07-30T10:29:16;1.25;;;0.93;;
12725;SDS011;6427;49.754;6.106;2022-07-30T10:31:43;1.17;;;0.60;;
12725;SDS011;6427;49.754;6.106;2022-07-30T10:34:11;0.90;;;0.70;;
12725;SDS011;6427;49.754;6.106;2022-07-30T10:36:43;1.63;;;0.67;;
12725;SDS011;6427;49.754;6.106;2022-07-30T10:39:19;0.93;;;0.50;;
12725;SDS011;6427;49.754;6.106;2022-07-30T10:47:26;0.83;;;0.63;;
12725;SDS011;6427;49.754;6.106;2022-07-30T10:50:06;1.20;;;0.73;;
12725;SDS011;6427;49.754;6.106;2022-07-30T10:52:44;1.30;;;0.90;;
12725;SDS011;6427;49.754;6.106;2022-07-30T10:55:12;3.40;;;2.50;;
12725;SDS011;6427;49.754;6.106;2022-07-30T11:00:34;1.40;;;0.90;;
12725;SDS011;6427;49.754;6.106;2022-07-30T11:03:18;1.17;;;0.70;;
12725;SDS011;6427;49.754;6.106;2022-07-30T11:05:47;0.77;;;0.77;;
12725;SDS011;6427;49.754;6.106;2022-07-30T11:08:27;3.50;;;0.90;;
12725;SDS011;6427;49.754;6.106;2022-07-30T11:10:55;1.13;;;0.97;;
12725;SDS011;6427;49.754;6.106;2022-07-30T11:14:06;4.93;;;0.80;;
12725;SDS011;6427;49.754;6.106;2022-07-30T11:16:11;2.40;;;1.07;;
12725;SDS011;6427;49.754;6.106;2022-07-30T11:21:34;0.90;;;0.70;;
12725;SDS011;6427;49.754;6.106;2022-07-30T11:24:02;1.27;;;1.00;;
12725;SDS011;6427;49.754;6.106;2022-07-30T11:29:06;1.30;;;0.80;;
12725;SDS011;6427;49.754;6.106;2022-07-30T11:31:34;1.37;;;0.70;;
12725;SDS011;6427;49.754;6.106;2022-07-30T11:42:28;1.27;;;0.90;;
12725;SDS011;6427;49.754;6.106;2022-07-30T11:45:40;1.80;;;0.70;;
12725;SDS011;6427;49.754;6.106;2022-07-30T11:47:49;1.23;;;0.70;;
12725;SDS011;6427;49.754;6.106;2022-07-30T11:50:27;3.33;;;0.77;;
12725;SDS011;6427;49.754;6.106;2022-07-30T11:52:52;1.07;;;0.53;;
12725;SDS011;6427;49.754;6.106;2022-07-30T11:55:22;0.50;;;0.50;;
12725;SDS011;6427;49.754;6.106;2022-07-30T11:57:53;0.97;;;0.60;;
12725;SDS011;6427;49.754;6.106;2022-07-30T12:00:21;2.00;;;0.70;;
12725;SDS011;6427;49.754;6.106;2022-07-30T12:02:48;0.97;;;0.60;;
12725;SDS011;6427;49.754;6.106;2022-07-30T12:05:22;2.13;;;1.63;;
12725;SDS011;6427;49.754;6.106;2022-07-30T12:07:50;2.50;;;1.90;;
12725;SDS011;6427;49.754;6.106;2022-07-30T12:10:18;1.03;;;0.57;;
12725;SDS011;6427;49.754;6.106;2022-07-30T12:12:45;1.30;;;0.60;;
12725;SDS011;6427;49.754;6.106;2022-07-30T12:15:32;0.40;;;0.37;;
12725;SDS011;6427;49.754;6.106;2022-07-30T12:17:55;1.80;;;0.80;;
12725;SDS011;6427;49.754;6.106;2022-07-30T12:20:24;1.63;;;0.60;;
12725;SDS011;6427;49.754;6.106;2022-07-30T12:22:51;0.60;;;0.50;;
12725;SDS011;6427;49.754;6.106;2022-07-30T12:25:19;1.13;;;0.97;;
12725;SDS011;6427;49.754;6.106;2022-07-30T12:27:47;1.87;;;0.60;;
12725;SDS011;6427;49.754;6.106;2022-07-30T12:30:15;1.17;;;0.60;;
12725;SDS011;6427;49.754;6.106;2022-07-30T12:32:42;0.60;;;0.50;;
12725;SDS011;6427;49.754;6.106;2022-07-30T12:35:10;0.50;;;0.50;;
12725;SDS011;6427;49.754;6.106;2022-07-30T12:37:38;1.07;;;0.70;;
12725;SDS011;6427;49.754;6.106;2022-07-30T12:42:34;1.30;;;0.80;;
12725;SDS011;6427;49.754;6.106;2022-07-30T12:45:01;2.60;;;0.50;;
12725;SDS011;6427;49.754;6.106;2022-07-30T12:47:29;1.03;;;0.80;;
12725;SDS011;6427;49.754;6.106;2022-07-30T12:49:57;1.13;;;0.60;;
12725;SDS011;6427;49.754;6.106;2022-07-30T12:52:31;0.50;;;0.50;;
12725;SDS011;6427;49.754;6.106;2022-07-30T12:55:08;1.07;;;0.70;;
12725;SDS011;6427;49.754;6.106;2022-07-30T12:57:54;0.83;;;0.70;;
12725;SDS011;6427;49.754;6.106;2022-07-30T13:00:17;1.30;;;0.60;;
12725;SDS011;6427;49.754;6.106;2022-07-30T13:02:44;1.00;;;0.60;;
12725;SDS011;6427;49.754;6.106;2022-07-30T13:05:13;0.60;;;0.60;;
12725;SDS011;6427;49.754;6.106;2022-07-30T13:10:21;1.57;;;0.53;;
12725;SDS011;6427;49.754;6.106;2022-07-30T13:12:48;1.33;;;0.43;;
12725;SDS011;6427;49.754;6.106;2022-07-30T13:15:19;0.85;;;0.50;;
12725;SDS011;6427;49.754;6.106;2022-07-30T13:17:47;0.63;;;0.50;;
12725;SDS011;6427;49.754;6.106;2022-07-30T13:20:15;0.60;;;0.60;;
12725;SDS011;6427;49.754;6.106;2022-07-30T13:22:42;0.70;;;0.60;;
12725;SDS011;6427;49.754;6.106;2022-07-30T13:25:10;0.73;;;0.68;;
12725;SDS011;6427;49.754;6.106;2022-07-30T13:27:37;1.37;;;0.97;;
12725;SDS011;6427;49.754;6.106;2022-07-30T13:30:05;1.50;;;0.80;;
12725;SDS011;6427;49.754;6.106;2022-07-30T13:32:33;2.10;;;0.80;;
12725;SDS011;6427;49.754;6.106;2022-07-30T13:35:01;0.70;;;0.70;;
12725;SDS011;6427;49.754;6.106;2022-07-30T13:37:28;1.13;;;0.80;;
12725;SDS011;6427;49.754;6.106;2022-07-30T13:39:56;0.50;;;0.50;;
12725;SDS011;6427;49.754;6.106;2022-07-30T13:42:23;2.00;;;0.70;;
12725;SDS011;6427;49.754;6.106;2022-07-30T13:44:52;1.62;;;0.88;;
12725;SDS011;6427;49.754;6.106;2022-07-30T13:47:19;1.17;;;0.83;;
12725;SDS011;6427;49.754;6.106;2022-07-30T13:49:47;1.52;;;0.80;;
12725;SDS011;6427;49.754;6.106;2022-07-30T13:52:15;1.00;;;0.70;;
12725;SDS011;6427;49.754;6.106;2022-07-30T13:54:42;2.23;;;0.77;;
12725;SDS011;6427;49.754;6.106;2022-07-30T13:57:10;0.70;;;0.70;;
12725;SDS011;6427;49.754;6.106;2022-07-30T13:59:38;1.05;;;0.80;;
12725;SDS011;6427;49.754;6.106;2022-07-30T14:02:06;1.47;;;0.90;;
12725;SDS011;6427;49.754;6.106;2022-07-30T14:04:34;1.00;;;0.90;;
12725;SDS011;6427;49.754;6.106;2022-07-30T14:07:01;0.90;;;0.80;;
12725;SDS011;6427;49.754;6.106;2022-07-30T14:09:29;0.97;;;0.87;;
12725;SDS011;6427;49.754;6.106;2022-07-30T14:11:56;0.87;;;0.83;;
12725;SDS011;6427;49.754;6.106;2022-07-30T14:14:24;1.03;;;0.80;;
12725;SDS011;6427;49.754;6.106;2022-07-30T14:16:52;1.27;;;0.90;;
12725;SDS011;6427;49.754;6.106;2022-07-30T14:19:19;1.43;;;1.00;;
12725;SDS011;6427;49.754;6.106;2022-07-30T14:21:47;1.60;;;0.97;;
12725;SDS011;6427;49.754;6.106;2022-07-30T14:24:14;1.20;;;0.93;;
12725;SDS011;6427;49.754;6.106;2022-07-30T14:26:43;2.83;;;0.90;;
12725;SDS011;6427;49.754;6.106;2022-07-30T14:29:10;1.30;;;1.20;;
12725;SDS011;6427;49.754;6.106;2022-07-30T14:31:39;1.23;;;1.05;;
12725;SDS011;6427;49.754;6.106;2022-07-30T14:34:07;2.23;;;1.03;;
12725;SDS011;6427;49.754;6.106;2022-07-30T14:36:34;1.40;;;0.80;;
12725;SDS011;6427;49.754;6.106;2022-07-30T14:39:02;1.87;;;1.47;;
12725;SDS011;6427;49.754;6.106;2022-07-30T14:41:29;1.20;;;1.10;;
12725;SDS011;6427;49.754;6.106;2022-07-30T14:43:57;1.77;;;1.57;;
12725;SDS011;6427;49.754;6.106;2022-07-30T14:46:25;1.92;;;1.48;;
12725;SDS011;6427;49.754;6.106;2022-07-30T14:48:53;3.63;;;1.10;;
12725;SDS011;6427;49.754;6.106;2022-07-30T14:51:21;2.87;;;1.17;;
12725;SDS011;6427;49.754;6.106;2022-07-30T14:53:49;2.87;;;1.00;;
12725;SDS011;6427;49.754;6.106;2022-07-30T14:56:16;2.20;;;1.05;;
12725;SDS011;6427;49.754;6.106;2022-07-30T14:58:44;3.23;;;0.83;;
12725;SDS011;6427;49.754;6.106;2022-07-30T15:01:12;1.25;;;1.15;;
12725;SDS011;6427;49.754;6.106;2022-07-30T15:03:39;2.00;;;1.00;;
12725;SDS011;6427;49.754;6.106;2022-07-30T15:06:07;1.53;;;0.93;;
12725;SDS011;6427;49.754;6.106;2022-07-30T15:08:34;1.37;;;0.70;;
12725;SDS011;6427;49.754;6.106;2022-07-30T15:11:02;1.30;;;0.77;;
12725;SDS011;6427;49.754;6.106;2022-07-30T15:13:29;1.23;;;1.17;;
12725;SDS011;6427;49.754;6.106;2022-07-30T15:15:57;2.50;;;1.00;;
12725;SDS011;6427;49.754;6.106;2022-07-30T15:18:25;1.10;;;0.80;;
12725;SDS011;6427;49.754;6.106;2022-07-30T15:20:53;1.13;;;0.80;;
12725;SDS011;6427;49.754;6.106;2022-07-30T15:23:21;2.13;;;1.20;;
12725;SDS011;6427;49.754;6.106;2022-07-30T15:25:48;2.60;;;1.00;;
12725;SDS011;6427;49.754;6.106;2022-07-30T15:28:16;1.30;;;1.17;;
12725;SDS011;6427;49.754;6.106;2022-07-30T15:30:43;2.60;;;1.27;;
12725;SDS011;6427;49.754;6.106;2022-07-30T15:33:11;1.80;;;1.13;;
12725;SDS011;6427;49.754;6.106;2022-07-30T15:35:40;1.03;;;0.80;;
12725;SDS011;6427;49.754;6.106;2022-07-30T15:38:07;2.60;;;1.13;;
12725;SDS011;6427;49.754;6.106;2022-07-30T15:40:35;1.10;;;0.90;;
12725;SDS011;6427;49.754;6.106;2022-07-30T15:43:02;1.10;;;1.00;;